Terminal Aerodrome Forecast
Issued by NWS

Current Version | Previous Version | Graphics & Text | Print | Product List | Glossary On
Versions: 1 2 3 4 5 6 7 8 9 10 11 12 13 14 15 16 17 18 19 20 21
000
FTUS41 KILN 181400 AAB
TAFLCK
TAF AMD
KLCK 181457Z 1815/1912 05006KT P6SM OVC070
     FM181700 07006KT P6SM VCSH BKN040
     FM190100 VRB03KT P6SM BKN100=

USA.gov is the U.S. government's official web portal to all federal, state and local government web resources and services.